sensor_id;sensor_type;location;lat;lon;timestamp;pressure;altitude;pressure_sealevel;temperature;humidity
32243;BME280;18731;42.830;24.390;2023-03-21T04:02:38;94347.91;;;7.75;64.53
32243;BME280;18731;42.830;24.390;2023-03-21T04:05:04;94347.59;;;7.68;64.84
32243;BME280;18731;42.830;24.390;2023-03-21T04:07:30;94363.06;;;7.75;65.13
32243;BME280;18731;42.830;24.390;2023-03-21T04:09:56;94366.97;;;7.78;64.98
32243;BME280;18731;42.830;24.390;2023-03-21T04:12:23;94364.00;;;7.62;65.08
32243;BME280;18731;42.830;24.390;2023-03-21T04:14:49;94361.19;;;7.58;65.17
32243;BME280;18731;42.830;24.390;2023-03-21T04:17:16;94362.91;;;7.54;65.16
32243;BME280;18731;42.830;24.390;2023-03-21T04:19:43;94361.50;;;7.57;64.84
32243;BME280;18731;42.830;24.390;2023-03-21T04:22:10;94366.03;;;7.56;65.36
32243;BME280;18731;42.830;24.390;2023-03-21T04:24:40;94361.66;;;7.43;65.63
32243;BME280;18731;42.830;24.390;2023-03-21T04:27:06;94358.97;;;7.34;65.53
32243;BME280;18731;42.830;24.390;2023-03-21T04:29:32;94354.91;;;7.37;65.30
32243;BME280;18731;42.830;24.390;2023-03-21T04:31:58;94340.22;;;7.22;65.83
32243;BME280;18731;42.830;24.390;2023-03-21T04:34:24;94360.38;;;7.32;65.66
32243;BME280;18731;42.830;24.390;2023-03-21T04:36:55;94354.91;;;7.28;65.77
32243;BME280;18731;42.830;24.390;2023-03-21T04:39:21;94372.41;;;7.29;65.55
32243;BME280;18731;42.830;24.390;2023-03-21T04:41:49;94365.97;;;7.22;66.44
32243;BME280;18731;42.830;24.390;2023-03-21T04:44:16;94362.03;;;7.02;66.69
32243;BME280;18731;42.830;24.390;2023-03-21T04:46:42;94376.75;;;7.17;66.25
32243;BME280;18731;42.830;24.390;2023-03-21T04:49:08;94377.84;;;7.16;66.41
32243;BME280;18731;42.830;24.390;2023-03-21T04:51:34;94385.50;;;7.17;66.19
32243;BME280;18731;42.830;24.390;2023-03-21T04:54:01;94368.91;;;7.12;65.97
32243;BME280;18731;42.830;24.390;2023-03-21T04:56:28;94384.69;;;7.17;66.06
32243;BME280;18731;42.830;24.390;2023-03-21T04:59:06;94387.34;;;7.17;66.12
32243;BME280;18731;42.830;24.390;2023-03-21T05:01:32;94387.06;;;7.18;65.91
32243;BME280;18731;42.830;24.390;2023-03-21T05:04:02;94387.53;;;7.29;65.52
32243;BME280;18731;42.830;24.390;2023-03-21T05:06:28;94380.66;;;7.28;65.40
32243;BME280;18731;42.830;24.390;2023-03-21T05:08:55;94385.84;;;7.41;65.85
32243;BME280;18731;42.830;24.390;2023-03-21T05:11:27;94397.56;;;7.40;65.85
32243;BME280;18731;42.830;24.390;2023-03-21T05:13:55;94392.59;;;7.56;65.23
32243;BME280;18731;42.830;24.390;2023-03-21T05:16:21;94398.06;;;7.68;65.05
32243;BME280;18731;42.830;24.390;2023-03-21T05:18:51;94397.28;;;7.59;66.19
32243;BME280;18731;42.830;24.390;2023-03-21T05:21:20;94397.91;;;7.56;66.75
32243;BME280;18731;42.830;24.390;2023-03-21T05:23:46;94386.34;;;7.61;66.68
32243;BME280;18731;42.830;24.390;2023-03-21T05:26:19;94391.34;;;7.62;66.41
32243;BME280;18731;42.830;24.390;2023-03-21T05:28:45;94389.63;;;7.75;66.14
32243;BME280;18731;42.830;24.390;2023-03-21T05:31:17;94397.50;;;7.97;65.53
32243;BME280;18731;42.830;24.390;2023-03-21T05:33:44;94390.75;;;8.17;65.21
32243;BME280;18731;42.830;24.390;2023-03-21T05:36:10;94389.50;;;8.41;65.13
32243;BME280;18731;42.830;24.390;2023-03-21T05:38:36;94394.91;;;8.70;64.21
32243;BME280;18731;42.830;24.390;2023-03-21T05:41:02;94392.81;;;8.84;63.72
32243;BME280;18731;42.830;24.390;2023-03-21T05:43:27;94388.53;;;9.00;63.14
32243;BME280;18731;42.830;24.390;2023-03-21T05:45:53;94383.69;;;9.32;62.50
32243;BME280;18731;42.830;24.390;2023-03-21T05:48:19;94384.50;;;9.53;60.86
32243;BME280;18731;42.830;24.390;2023-03-21T05:50:45;94368.66;;;9.78;60.96
32243;BME280;18731;42.830;24.390;2023-03-21T05:53:10;94384.19;;;9.96;58.79
32243;BME280;18731;42.830;24.390;2023-03-21T05:55:36;94370.25;;;10.12;58.04
32243;BME280;18731;42.830;24.390;2023-03-21T05:58:02;94384.78;;;10.44;57.89
32243;BME280;18731;42.830;24.390;2023-03-21T06:00:27;94382.59;;;10.58;56.82
32243;BME280;18731;42.830;24.390;2023-03-21T06:02:53;94373.84;;;10.70;56.38
32243;BME280;18731;42.830;24.390;2023-03-21T06:05:19;94376.41;;;10.78;56.32
32243;BME280;18731;42.830;24.390;2023-03-21T06:07:44;94358.16;;;10.80;56.08
32243;BME280;18731;42.830;24.390;2023-03-21T06:10:10;94372.66;;;11.04;56.01
32243;BME280;18731;42.830;24.390;2023-03-21T06:12:36;94370.00;;;11.16;55.66
32243;BME280;18731;42.830;24.390;2023-03-21T06:15:04;94364.88;;;11.23;55.37
32243;BME280;18731;42.830;24.390;2023-03-21T06:17:31;94367.41;;;11.44;55.79
32243;BME280;18731;42.830;24.390;2023-03-21T06:19:57;94364.94;;;11.63;55.59
32243;BME280;18731;42.830;24.390;2023-03-21T06:22:26;94346.09;;;11.72;54.44
32243;BME280;18731;42.830;24.390;2023-03-21T06:24:52;94352.53;;;11.95;51.88
32243;BME280;18731;42.830;24.390;2023-03-21T06:27:18;94351.91;;;12.14;52.62
32243;BME280;18731;42.830;24.390;2023-03-21T06:29:43;94363.78;;;12.29;52.60
32243;BME280;18731;42.830;24.390;2023-03-21T06:32:11;94343.00;;;12.38;52.93
32243;BME280;18731;42.830;24.390;2023-03-21T06:34:37;94360.41;;;12.60;53.14
32243;BME280;18731;42.830;24.390;2023-03-21T06:37:02;94354.44;;;12.66;52.00
32243;BME280;18731;42.830;24.390;2023-03-21T06:39:29;94355.84;;;12.76;52.07
32243;BME280;18731;42.830;24.390;2023-03-21T06:41:56;94357.16;;;12.82;50.66
32243;BME280;18731;42.830;24.390;2023-03-21T06:44:22;94357.41;;;12.93;49.63
32243;BME280;18731;42.830;24.390;2023-03-21T06:46:49;94346.88;;;13.00;49.54
32243;BME280;18731;42.830;24.390;2023-03-21T06:49:15;94344.13;;;13.12;49.43
32243;BME280;18731;42.830;24.390;2023-03-21T06:51:41;94343.38;;;13.27;49.59
32243;BME280;18731;42.830;24.390;2023-03-21T06:54:07;94345.31;;;13.46;48.06
32243;BME280;18731;42.830;24.390;2023-03-21T06:56:33;94341.72;;;13.73;48.71
32243;BME280;18731;42.830;24.390;2023-03-21T06:58:58;94335.16;;;13.90;47.58
32243;BME280;18731;42.830;24.390;2023-03-21T07:01:24;94341.59;;;14.05;45.82
32243;BME280;18731;42.830;24.390;2023-03-21T07:03:52;94339.41;;;14.10;44.50
32243;BME280;18731;42.830;24.390;2023-03-21T07:06:18;94313.63;;;14.06;44.39
32243;BME280;18731;42.830;24.390;2023-03-21T07:08:44;94331.22;;;14.23;45.20
32243;BME280;18731;42.830;24.390;2023-03-21T07:11:12;94330.50;;;14.26;43.70
32243;BME280;18731;42.830;24.390;2023-03-21T07:13:38;94328.09;;;14.21;43.82
32243;BME280;18731;42.830;24.390;2023-03-21T07:16:04;94326.56;;;14.20;43.89
32243;BME280;18731;42.830;24.390;2023-03-21T07:18:30;94339.25;;;14.23;43.15
32243;BME280;18731;42.830;24.390;2023-03-21T07:20:56;94331.63;;;14.25;42.90
32243;BME280;18731;42.830;24.390;2023-03-21T07:23:23;94334.19;;;14.18;43.53
32243;BME280;18731;42.830;24.390;2023-03-21T07:25:50;94333.34;;;14.13;42.72
32243;BME280;18731;42.830;24.390;2023-03-21T07:28:16;94338.69;;;14.13;42.49
32243;BME280;18731;42.830;24.390;2023-03-21T07:30:43;94330.66;;;14.13;43.60
32243;BME280;18731;42.830;24.390;2023-03-21T07:33:09;94326.47;;;14.16;43.20
32243;BME280;18731;42.830;24.390;2023-03-21T07:35:34;94329.94;;;14.16;42.97
32243;BME280;18731;42.830;24.390;2023-03-21T07:38:03;94325.56;;;14.28;42.45
32243;BME280;18731;42.830;24.390;2023-03-21T07:40:30;94320.91;;;14.44;42.05
32243;BME280;18731;42.830;24.390;2023-03-21T07:42:55;94314.31;;;14.61;42.23
32243;BME280;18731;42.830;24.390;2023-03-21T07:45:21;94300.50;;;14.62;42.31
32243;BME280;18731;42.830;24.390;2023-03-21T07:47:50;94309.34;;;14.86;42.14
32243;BME280;18731;42.830;24.390;2023-03-21T07:50:16;94306.53;;;15.01;41.26
32243;BME280;18731;42.830;24.390;2023-03-21T07:52:42;94312.84;;;15.12;41.65
32243;BME280;18731;42.830;24.390;2023-03-21T07:55:08;94306.88;;;15.23;39.98
32243;BME280;18731;42.830;24.390;2023-03-21T07:57:34;94309.00;;;15.36;41.16
32243;BME280;18731;42.830;24.390;2023-03-21T08:00:01;94305.59;;;15.39;40.31
32243;BME280;18731;42.830;24.390;2023-03-21T08:02:28;94309.66;;;15.56;40.97
32243;BME280;18731;42.830;24.390;2023-03-21T08:04:54;94308.00;;;15.71;40.23
32243;BME280;18731;42.830;24.390;2023-03-21T08:07:19;94311.78;;;15.96;40.07
32243;BME280;18731;42.830;24.390;2023-03-21T08:09:45;94300.38;;;16.06;39.87
32243;BME280;18731;42.830;24.390;2023-03-21T08:12:11;94315.25;;;16.30;39.13
32243;BME280;18731;42.830;24.390;2023-03-21T08:14:36;94322.72;;;16.44;40.32
32243;BME280;18731;42.830;24.390;2023-03-21T08:17:03;94308.63;;;16.58;38.62
32243;BME280;18731;42.830;24.390;2023-03-21T08:19:29;94309.75;;;16.53;37.31
32243;BME280;18731;42.830;24.390;2023-03-21T08:21:55;94305.66;;;16.66;39.00
32243;BME280;18731;42.830;24.390;2023-03-21T08:24:25;94297.34;;;16.82;39.11
32243;BME280;18731;42.830;24.390;2023-03-21T08:26:51;94300.53;;;16.95;38.46
32243;BME280;18731;42.830;24.390;2023-03-21T08:29:16;94290.78;;;16.80;37.39
32243;BME280;18731;42.830;24.390;2023-03-21T08:31:42;94291.97;;;16.86;37.36
32243;BME280;18731;42.830;24.390;2023-03-21T08:34:08;94291.22;;;16.85;38.35
32243;BME280;18731;42.830;24.390;2023-03-21T08:36:35;94292.16;;;17.07;38.18
32243;BME280;18731;42.830;24.390;2023-03-21T08:39:05;94281.34;;;17.03;36.58
32243;BME280;18731;42.830;24.390;2023-03-21T08:41:32;94279.84;;;17.10;36.36
32243;BME280;18731;42.830;24.390;2023-03-21T08:43:57;94290.34;;;17.22;35.77
32243;BME280;18731;42.830;24.390;2023-03-21T08:46:23;94273.44;;;17.28;35.80
32243;BME280;18731;42.830;24.390;2023-03-21T08:48:49;94276.28;;;17.50;36.43
32243;BME280;18731;42.830;24.390;2023-03-21T08:51:14;94277.88;;;17.61;36.16
32243;BME280;18731;42.830;24.390;2023-03-21T08:53:40;94281.84;;;17.78;35.29
32243;BME280;18731;42.830;24.390;2023-03-21T08:56:07;94273.44;;;17.94;35.63
32243;BME280;18731;42.830;24.390;2023-03-21T08:58:32;94275.03;;;18.02;34.21
32243;BME280;18731;42.830;24.390;2023-03-21T09:00:58;94270.44;;;18.13;36.15
32243;BME280;18731;42.830;24.390;2023-03-21T09:03:24;94273.50;;;18.12;34.47
32243;BME280;18731;42.830;24.390;2023-03-21T09:05:54;94275.72;;;17.85;33.88
32243;BME280;18731;42.830;24.390;2023-03-21T09:08:20;94278.03;;;17.86;34.60
32243;BME280;18731;42.830;24.390;2023-03-21T09:10:54;94268.75;;;17.80;34.42
32243;BME280;18731;42.830;24.390;2023-03-21T09:13:21;94271.50;;;17.94;34.29
32243;BME280;18731;42.830;24.390;2023-03-21T09:15:47;94264.72;;;18.25;35.02
32243;BME280;18731;42.830;24.390;2023-03-21T09:18:13;94265.53;;;18.40;35.19
32243;BME280;18731;42.830;24.390;2023-03-21T09:20:46;94262.50;;;18.70;33.94
32243;BME280;18731;42.830;24.390;2023-03-21T09:23:13;94261.38;;;18.82;32.69
32243;BME280;18731;42.830;24.390;2023-03-21T09:25:40;94254.41;;;19.02;32.71
32243;BME280;18731;42.830;24.390;2023-03-21T09:28:06;94250.16;;;19.01;31.97
32243;BME280;18731;42.830;24.390;2023-03-21T09:30:34;94245.91;;;18.97;31.83
32243;BME280;18731;42.830;24.390;2023-03-21T09:33:01;94250.16;;;18.87;31.69
32243;BME280;18731;42.830;24.390;2023-03-21T09:35:28;94247.47;;;19.08;32.07
32243;BME280;18731;42.830;24.390;2023-03-21T09:37:54;94243.59;;;19.13;32.09
32243;BME280;18731;42.830;24.390;2023-03-21T09:46:08;94228.94;;;18.89;31.69
32243;BME280;18731;42.830;24.390;2023-03-21T09:48:55;94230.38;;;18.29;32.44
32243;BME280;18731;42.830;24.390;2023-03-21T09:51:23;94227.16;;;17.95;33.81
32243;BME280;18731;42.830;24.390;2023-03-21T09:53:52;94227.78;;;17.64;34.66
32243;BME280;18731;42.830;24.390;2023-03-21T09:56:20;94223.91;;;17.65;35.42
32243;BME280;18731;42.830;24.390;2023-03-21T09:58:52;94226.22;;;17.63;36.01
32243;BME280;18731;42.830;24.390;2023-03-21T10:01:23;94224.97;;;17.43;36.02
32243;BME280;18731;42.830;24.390;2023-03-21T10:03:59;94222.97;;;17.32;36.65
32243;BME280;18731;42.830;24.390;2023-03-21T10:06:28;94219.50;;;17.28;36.96
32243;BME280;18731;42.830;24.390;2023-03-21T10:09:03;94231.53;;;17.45;37.70
32243;BME280;18731;42.830;24.390;2023-03-21T10:11:47;94230.81;;;17.55;37.11
32243;BME280;18731;42.830;24.390;2023-03-21T10:14:21;94226.06;;;17.34;37.20
32243;BME280;18731;42.830;24.390;2023-03-21T10:20:17;94236.44;;;17.25;37.94
32243;BME280;18731;42.830;24.390;2023-03-21T10:22:48;94234.13;;;17.27;38.42
32243;BME280;18731;42.830;24.390;2023-03-21T10:25:17;94218.34;;;17.29;38.23
32243;BME280;18731;42.830;24.390;2023-03-21T10:27:45;94231.81;;;17.29;38.34
32243;BME280;18731;42.830;24.390;2023-03-21T10:30:38;94227.59;;;17.28;39.68
32243;BME280;18731;42.830;24.390;2023-03-21T10:33:07;94227.97;;;17.30;38.76
32243;BME280;18731;42.830;24.390;2023-03-21T10:35:37;94223.66;;;17.19;38.58
32243;BME280;18731;42.830;24.390;2023-03-21T10:38:05;94222.91;;;17.18;38.74
32243;BME280;18731;42.830;24.390;2023-03-21T10:40:31;94215.94;;;17.17;38.90
32243;BME280;18731;42.830;24.390;2023-03-21T10:43:15;94205.56;;;17.19;38.86
32243;BME280;18731;42.830;24.390;2023-03-21T10:45:44;94205.97;;;17.21;39.10
32243;BME280;18731;42.830;24.390;2023-03-21T10:48:10;94200.13;;;17.12;39.54
32243;BME280;18731;42.830;24.390;2023-03-21T10:50:36;94211.03;;;17.30;41.25
32243;BME280;18731;42.830;24.390;2023-03-21T10:53:02;94187.50;;;17.27;39.52
32243;BME280;18731;42.830;24.390;2023-03-21T10:55:28;94194.41;;;17.21;39.85
32243;BME280;18731;42.830;24.390;2023-03-21T10:58:12;94190.53;;;17.18;39.78
32243;BME280;18731;42.830;24.390;2023-03-21T11:00:45;94187.34;;;17.02;39.43
32243;BME280;18731;42.830;24.390;2023-03-21T11:08:49;94183.66;;;17.31;40.20
32243;BME280;18731;42.830;24.390;2023-03-21T11:11:32;94183.72;;;17.42;40.09
32243;BME280;18731;42.830;24.390;2023-03-21T11:14:01;94176.81;;;17.48;40.87
32243;BME280;18731;42.830;24.390;2023-03-21T11:16:39;94173.78;;;17.64;39.52
32243;BME280;18731;42.830;24.390;2023-03-21T11:19:13;94174.53;;;17.57;39.03
32243;BME280;18731;42.830;24.390;2023-03-21T11:21:39;94176.00;;;17.41;38.80
32243;BME280;18731;42.830;24.390;2023-03-21T11:24:11;94168.34;;;17.50;40.03
32243;BME280;18731;42.830;24.390;2023-03-21T11:26:38;94162.19;;;17.53;38.58
32243;BME280;18731;42.830;24.390;2023-03-21T11:29:30;94153.72;;;17.58;39.09
32243;BME280;18731;42.830;24.390;2023-03-21T11:32:33;94154.13;;;17.60;39.23
32243;BME280;18731;42.830;24.390;2023-03-21T11:35:21;94149.13;;;17.62;39.21
32243;BME280;18731;42.830;24.390;2023-03-21T11:37:53;94143.41;;;17.74;39.63
32243;BME280;18731;42.830;24.390;2023-03-21T11:40:23;94150.41;;;18.00;39.06
32243;BME280;18731;42.830;24.390;2023-03-21T11:42:55;94147.78;;;18.28;39.32
32243;BME280;18731;42.830;24.390;2023-03-21T11:45:26;94139.69;;;18.39;37.51
32243;BME280;18731;42.830;24.390;2023-03-21T11:47:56;94144.69;;;18.48;37.55
32243;BME280;18731;42.830;24.390;2023-03-21T11:53:24;94143.94;;;18.76;37.40
32243;BME280;18731;42.830;24.390;2023-03-21T11:58:55;94130.38;;;19.11;37.70
32243;BME280;18731;42.830;24.390;2023-03-21T12:01:30;94124.56;;;19.13;36.98
32243;BME280;18731;42.830;24.390;2023-03-21T12:10:41;94125.88;;;19.81;36.45
32243;BME280;18731;42.830;24.390;2023-03-21T12:16:03;94129.72;;;19.87;35.75
32243;BME280;18731;42.830;24.390;2023-03-21T12:21:36;94125.03;;;19.91;35.87
32243;BME280;18731;42.830;24.390;2023-03-21T12:24:24;94114.69;;;19.76;36.37
32243;BME280;18731;42.830;24.390;2023-03-21T12:44:12;94102.09;;;19.26;37.50
32243;BME280;18731;42.830;24.390;2023-03-21T12:46:46;94100.59;;;19.15;37.79
32243;BME280;18731;42.830;24.390;2023-03-21T12:49:33;94101.41;;;18.98;38.25
32243;BME280;18731;42.830;24.390;2023-03-21T12:52:05;94089.91;;;18.69;38.95
32243;BME280;18731;42.830;24.390;2023-03-21T12:54:34;94099.53;;;18.34;39.64
32243;BME280;18731;42.830;24.390;2023-03-21T12:57:13;94104.13;;;18.19;39.55
32243;BME280;18731;42.830;24.390;2023-03-21T12:59:46;94109.88;;;17.89;39.97
32243;BME280;18731;42.830;24.390;2023-03-21T13:02:31;94105.25;;;17.79;40.35
32243;BME280;18731;42.830;24.390;2023-03-21T13:05:28;94093.66;;;17.75;40.36
32243;BME280;18731;42.830;24.390;2023-03-21T13:10:46;94097.06;;;17.65;41.32
32243;BME280;18731;42.830;24.390;2023-03-21T13:15:54;94110.53;;;17.51;41.21
32243;BME280;18731;42.830;24.390;2023-03-21T13:24:00;94080.53;;;17.70;40.94
32243;BME280;18731;42.830;24.390;2023-03-21T13:26:39;94078.22;;;17.72;41.03
32243;BME280;18731;42.830;24.390;2023-03-21T13:29:22;94075.16;;;17.77;41.67
32243;BME280;18731;42.830;24.390;2023-03-21T13:31:51;94072.06;;;17.79;40.64
32243;BME280;18731;42.830;24.390;2023-03-21T13:34:22;94073.25;;;17.81;40.65
32243;BME280;18731;42.830;24.390;2023-03-21T13:36:49;94063.19;;;17.78;41.16
32243;BME280;18731;42.830;24.390;2023-03-21T13:39:24;94067.81;;;17.67;40.55
32243;BME280;18731;42.830;24.390;2023-03-21T13:41:51;94073.53;;;17.55;41.40
32243;BME280;18731;42.830;24.390;2023-03-21T13:44:31;94076.16;;;17.30;41.90
32243;BME280;18731;42.830;24.390;2023-03-21T13:47:05;94071.88;;;17.18;41.94
32243;BME280;18731;42.830;24.390;2023-03-21T13:50:22;94078.38;;;17.10;41.84
32243;BME280;18731;42.830;24.390;2023-03-21T13:55:40;94069.47;;;16.99;42.42
32243;BME280;18731;42.830;24.390;2023-03-21T13:58:32;94071.34;;;16.88;42.34
32243;BME280;18731;42.830;24.390;2023-03-21T14:03:41;94060.13;;;16.75;43.41
32243;BME280;18731;42.830;24.390;2023-03-21T14:06:09;94070.63;;;16.98;42.74
32243;BME280;18731;42.830;24.390;2023-03-21T14:08:37;94074.16;;;17.13;42.82
32243;BME280;18731;42.830;24.390;2023-03-21T14:11:10;94064.63;;;17.36;43.64
32243;BME280;18731;42.830;24.390;2023-03-21T14:13:41;94063.91;;;17.61;42.43
32243;BME280;18731;42.830;24.390;2023-03-21T14:16:14;94046.56;;;17.55;41.54
32243;BME280;18731;42.830;24.390;2023-03-21T14:18:44;94060.03;;;17.55;41.91
32243;BME280;18731;42.830;24.390;2023-03-21T14:21:19;94055.78;;;17.43;42.14
32243;BME280;18731;42.830;24.390;2023-03-21T14:23:46;94057.28;;;17.33;42.22
32243;BME280;18731;42.830;24.390;2023-03-21T14:26:12;94056.44;;;17.08;42.53
32243;BME280;18731;42.830;24.390;2023-03-21T14:28:44;94053.66;;;16.90;42.94
32243;BME280;18731;42.830;24.390;2023-03-21T14:31:14;94058.19;;;16.76;42.99
32243;BME280;18731;42.830;24.390;2023-03-21T14:33:44;94058.47;;;16.63;43.21
32243;BME280;18731;42.830;24.390;2023-03-21T14:36:19;94060.66;;;16.44;43.81
32243;BME280;18731;42.830;24.390;2023-03-21T14:39:09;94057.53;;;16.34;44.22
32243;BME280;18731;42.830;24.390;2023-03-21T14:41:54;94058.31;;;16.35;44.04
32243;BME280;18731;42.830;24.390;2023-03-21T14:44:40;94053.66;;;16.32;44.48
32243;BME280;18731;42.830;24.390;2023-03-21T14:47:18;94060.16;;;16.27;44.26
32243;BME280;18731;42.830;24.390;2023-03-21T14:49:44;94063.63;;;16.28;44.41
32243;BME280;18731;42.830;24.390;2023-03-21T14:52:13;94058.19;;;16.21;44.53
32243;BME280;18731;42.830;24.390;2023-03-21T14:54:43;94067.06;;;16.21;44.57
32243;BME280;18731;42.830;24.390;2023-03-21T14:57:12;94070.41;;;16.07;45.04
32243;BME280;18731;42.830;24.390;2023-03-21T14:59:40;94052.63;;;15.96;44.78
32243;BME280;18731;42.830;24.390;2023-03-21T15:02:17;94070.31;;;15.97;45.35
32243;BME280;18731;42.830;24.390;2023-03-21T15:04:48;94057.88;;;15.82;45.40
32243;BME280;18731;42.830;24.390;2023-03-21T15:07:41;94069.41;;;15.82;45.64
32243;BME280;18731;42.830;24.390;2023-03-21T15:10:14;94073.16;;;15.70;45.91
32243;BME280;18731;42.830;24.390;2023-03-21T15:13:12;94077.28;;;15.61;46.25
32243;BME280;18731;42.830;24.390;2023-03-21T15:15:39;94074.47;;;15.54;45.96
32243;BME280;18731;42.830;24.390;2023-03-21T15:18:06;94067.44;;;15.42;46.38
32243;BME280;18731;42.830;24.390;2023-03-21T15:20:35;94068.53;;;15.37;46.80
32243;BME280;18731;42.830;24.390;2023-03-21T15:23:16;94076.50;;;15.30;46.98
32243;BME280;18731;42.830;24.390;2023-03-21T15:25:45;94083.03;;;15.29;46.90
32243;BME280;18731;42.830;24.390;2023-03-21T15:28:12;94077.97;;;15.24;46.91
32243;BME280;18731;42.830;24.390;2023-03-21T15:30:49;94080.19;;;15.15;47.39
32243;BME280;18731;42.830;24.390;2023-03-21T15:33:16;94074.00;;;15.11;47.44
32243;BME280;18731;42.830;24.390;2023-03-21T15:35:45;94083.91;;;15.07;47.61
32243;BME280;18731;42.830;24.390;2023-03-21T15:41:14;94084.66;;;15.04;48.13
32243;BME280;18731;42.830;24.390;2023-03-21T15:43:41;94088.53;;;15.06;48.04
32243;BME280;18731;42.830;24.390;2023-03-21T15:46:17;94090.03;;;15.04;48.54
32243;BME280;18731;42.830;24.390;2023-03-21T15:51:41;94086.84;;;14.95;49.23
32243;BME280;18731;42.830;24.390;2023-03-21T15:54:13;94090.53;;;14.83;49.59
32243;BME280;18731;42.830;24.390;2023-03-21T15:56:40;94089.28;;;14.77;50.33
32243;BME280;18731;42.830;24.390;2023-03-21T15:59:14;94092.50;;;14.60;50.77
32243;BME280;18731;42.830;24.390;2023-03-21T16:01:47;94094.31;;;14.52;50.95
32243;BME280;18731;42.830;24.390;2023-03-21T16:04:14;94099.69;;;14.52;51.12
32243;BME280;18731;42.830;24.390;2023-03-21T16:07:02;94101.72;;;14.36;51.49
32243;BME280;18731;42.830;24.390;2023-03-21T16:09:41;94097.78;;;14.30;51.32
32243;BME280;18731;42.830;24.390;2023-03-21T16:12:11;94101.19;;;14.27;52.10
32243;BME280;18731;42.830;24.390;2023-03-21T16:14:37;94094.28;;;14.26;51.91
32243;BME280;18731;42.830;24.390;2023-03-21T16:19:52;94087.38;;;14.25;52.05
32243;BME280;18731;42.830;24.390;2023-03-21T16:22:19;94094.28;;;14.26;52.38
32243;BME280;18731;42.830;24.390;2023-03-21T16:24:46;94091.91;;;14.21;52.85
32243;BME280;18731;42.830;24.390;2023-03-21T16:27:12;94092.69;;;14.21;52.60
32243;BME280;18731;42.830;24.390;2023-03-21T16:29:38;94098.81;;;14.22;52.95
32243;BME280;18731;42.830;24.390;2023-03-21T16:32:11;94098.75;;;14.18;52.55
32243;BME280;18731;42.830;24.390;2023-03-21T16:34:39;94100.38;;;14.23;52.98
32243;BME280;18731;42.830;24.390;2023-03-21T16:37:09;94099.59;;;14.22;52.60
32243;BME280;18731;42.830;24.390;2023-03-21T16:39:35;94104.53;;;14.20;53.12
32243;BME280;18731;42.830;24.390;2023-03-21T16:42:00;94099.13;;;14.16;52.94
32243;BME280;18731;42.830;24.390;2023-03-21T16:44:26;94104.84;;;14.15;53.25
32243;BME280;18731;42.830;24.390;2023-03-21T16:46:52;94101.28;;;14.07;53.60
32243;BME280;18731;42.830;24.390;2023-03-21T16:51:43;94092.63;;;13.95;53.72
32243;BME280;18731;42.830;24.390;2023-03-21T16:54:08;94096.81;;;13.92;53.92
32243;BME280;18731;42.830;24.390;2023-03-21T16:56:39;94102.19;;;13.92;53.80
32243;BME280;18731;42.830;24.390;2023-03-21T16:59:06;94105.50;;;13.86;54.34
32243;BME280;18731;42.830;24.390;2023-03-21T17:01:33;94105.16;;;13.87;54.50
32243;BME280;18731;42.830;24.390;2023-03-21T17:04:02;94096.28;;;13.83;54.86
32243;BME280;18731;42.830;24.390;2023-03-21T17:06:29;94108.91;;;13.82;55.59
32243;BME280;18731;42.830;24.390;2023-03-21T17:08:56;94108.56;;;13.84;55.68
32243;BME280;18731;42.830;24.390;2023-03-21T17:11:23;94112.38;;;13.83;55.60
32243;BME280;18731;42.830;24.390;2023-03-21T17:13:52;94105.75;;;13.77;55.37
32243;BME280;18731;42.830;24.390;2023-03-21T17:16:21;94106.53;;;13.77;55.07
32243;BME280;18731;42.830;24.390;2023-03-21T17:18:48;94113.03;;;13.76;55.35
32243;BME280;18731;42.830;24.390;2023-03-21T17:21:15;94105.69;;;13.73;55.14
32243;BME280;18731;42.830;24.390;2023-03-21T17:23:42;94105.63;;;13.70;55.50
32243;BME280;18731;42.830;24.390;2023-03-21T17:26:08;94117.78;;;13.64;57.13
32243;BME280;18731;42.830;24.390;2023-03-21T17:28:38;94102.25;;;13.54;56.36
32243;BME280;18731;42.830;24.390;2023-03-21T17:31:15;94103.09;;;13.58;57.49
32243;BME280;18731;42.830;24.390;2023-03-21T17:33:42;94113.19;;;13.64;57.92
32243;BME280;18731;42.830;24.390;2023-03-21T17:36:16;94108.03;;;13.56;56.51
32243;BME280;18731;42.830;24.390;2023-03-21T17:38:42;94107.97;;;13.52;59.06
32243;BME280;18731;42.830;24.390;2023-03-21T17:41:15;94103.69;;;13.47;59.86
32243;BME280;18731;42.830;24.390;2023-03-21T17:43:41;94108.91;;;13.40;59.81
32243;BME280;18731;42.830;24.390;2023-03-21T17:46:16;94111.88;;;13.35;59.17
32243;BME280;18731;42.830;24.390;2023-03-21T17:48:43;94108.78;;;13.33;59.35
32243;BME280;18731;42.830;24.390;2023-03-21T17:51:09;94113.16;;;13.22;59.79
32243;BME280;18731;42.830;24.390;2023-03-21T17:53:39;94104.00;;;13.23;58.01
32243;BME280;18731;42.830;24.390;2023-03-21T17:56:16;94115.00;;;13.18;60.26
32243;BME280;18731;42.830;24.390;2023-03-21T17:58:44;94114.28;;;13.21;59.99
32243;BME280;18731;42.830;24.390;2023-03-21T18:01:11;94113.16;;;13.22;59.42
32243;BME280;18731;42.830;24.390;2023-03-21T18:03:37;94112.72;;;13.20;60.49
32243;BME280;18731;42.830;24.390;2023-03-21T18:06:03;94108.50;;;13.19;61.22
32243;BME280;18731;42.830;24.390;2023-03-21T18:08:29;94113.50;;;13.21;61.53
32243;BME280;18731;42.830;24.390;2023-03-21T18:10:55;94124.56;;;13.19;61.48
32243;BME280;18731;42.830;24.390;2023-03-21T18:13:21;94117.22;;;13.16;61.51
32243;BME280;18731;42.830;24.390;2023-03-21T18:15:46;94105.94;;;13.07;62.19
32243;BME280;18731;42.830;24.390;2023-03-21T18:18:15;94123.28;;;13.13;62.01
32243;BME280;18731;42.830;24.390;2023-03-21T18:20:41;94130.47;;;13.09;61.50
32243;BME280;18731;42.830;24.390;2023-03-21T18:23:07;94124.94;;;13.17;63.00
32243;BME280;18731;42.830;24.390;2023-03-21T18:25:32;94129.75;;;13.12;63.83